createdAt,value
2023-01-17T00:00:15.177Z,10.90
2023-01-17T00:02:44.838Z,9.50
2023-01-17T00:05:30.758Z,10.60
2023-01-17T00:08:16.646Z,10.40
2023-01-17T00:10:43.694Z,11.50
2023-01-17T00:13:11.053Z,10.20
2023-01-17T00:15:42.945Z,11.20
2023-01-17T00:18:10.165Z,11.00
2023-01-17T00:20:56.269Z,11.60
2023-01-17T00:23:43.067Z,9.10
2023-01-17T00:26:16.825Z,10.40
2023-01-17T00:28:46.075Z,11.60
2023-01-17T00:31:15.701Z,11.00
2023-01-17T00:33:47.953Z,10.90
2023-01-17T00:36:14.787Z,13.20
2023-01-17T00:38:46.959Z,10.50
2023-01-17T00:41:14.465Z,10.60
2023-01-17T00:44:02.873Z,10.30
2023-01-17T00:46:54.130Z,12.00
2023-01-17T00:49:50.409Z,11.20
2023-01-17T00:52:41.427Z,10.60
2023-01-17T00:55:27.534Z,9.90
2023-01-17T00:58:13.502Z,11.70
2023-01-17T01:01:04.660Z,11.40
2023-01-17T01:03:50.818Z,9.70
2023-01-17T01:06:36.699Z,11.10
2023-01-17T01:09:27.813Z,12.30
2023-01-17T01:12:13.529Z,11.10
2023-01-17T01:14:59.488Z,10.10
2023-01-17T01:17:45.381Z,11.80
2023-01-17T01:20:36.383Z,10.80
2023-01-17T01:23:23.820Z,11.20
2023-01-17T01:26:11.980Z,10.30
2023-01-17T01:28:58.249Z,11.60
2023-01-17T01:31:49.399Z,10.80
2023-01-17T01:34:16.752Z,11.00
2023-01-17T01:36:43.772Z,10.90
2023-01-17T01:39:10.817Z,9.90
2023-01-17T01:41:37.851Z,11.70
2023-01-17T01:44:05.008Z,11.30
2023-01-17T01:46:43.320Z,10.80
2023-01-17T01:55:35.803Z,10.90
2023-01-17T01:58:17.182Z,11.90
2023-01-17T02:00:49.351Z,11.40
2023-01-17T02:03:19.374Z,12.90
2023-01-17T02:05:46.210Z,12.10
2023-01-17T02:08:16.559Z,12.20
2023-01-17T02:10:49.519Z,11.40
2023-01-17T02:13:17.292Z,10.80
2023-01-17T02:15:53.754Z,10.70
2023-01-17T02:18:26.967Z,10.50
2023-01-17T02:21:11.353Z,10.10
2023-01-17T02:24:02.099Z,9.40
2023-01-17T02:27:12.810Z,8.50
2023-01-17T02:30:11.047Z,7.90
2023-01-17T02:33:16.816Z,8.80
2023-01-17T02:35:58.491Z,10.00
2023-01-17T02:38:51.361Z,9.70
2023-01-17T02:41:41.267Z,10.20
2023-01-17T02:44:09.097Z,8.60
2023-01-17T02:46:47.080Z,9.60
2023-01-17T02:49:15.456Z,8.90
2023-01-17T02:51:56.757Z,8.60
2023-01-17T02:54:41.726Z,9.30
2023-01-17T02:57:32.751Z,8.20
2023-01-17T03:00:14.933Z,9.50
2023-01-17T03:02:58.572Z,10.00
2023-01-17T03:05:37.294Z,8.50
2023-01-17T03:08:09.359Z,9.20
2023-01-17T03:10:36.416Z,9.60
2023-01-17T03:13:08.469Z,8.10
2023-01-17T03:15:35.453Z,8.60
2023-01-17T03:18:05.323Z,8.40
2023-01-17T03:20:33.721Z,9.70
2023-01-17T03:23:06.099Z,9.80
2023-01-17T03:25:33.541Z,9.00
2023-01-17T03:28:00.531Z,9.60
2023-01-17T03:30:27.684Z,9.60
2023-01-17T03:32:54.781Z,9.10
2023-01-17T03:35:21.834Z,10.20
2023-01-17T03:37:48.878Z,8.80
2023-01-17T03:40:15.926Z,8.50
2023-01-17T03:42:43.175Z,10.40
2023-01-17T03:45:10.837Z,10.50
2023-01-17T03:47:37.882Z,9.30
2023-01-17T03:50:05.471Z,10.00
2023-01-17T03:52:37.916Z,11.00
2023-01-17T03:55:06.043Z,10.50
2023-01-17T03:57:33.038Z,10.80
2023-01-17T04:00:00.104Z,10.30
2023-01-17T04:02:27.281Z,11.30
2023-01-17T04:04:54.284Z,13.20
2023-01-17T04:07:21.331Z,13.60
2023-01-17T04:09:48.375Z,12.30
2023-01-17T04:12:15.419Z,11.70
2023-01-17T04:14:42.468Z,13.80
2023-01-17T04:17:12.281Z,13.70
2023-01-17T04:19:39.237Z,14.20
2023-01-17T04:22:11.287Z,13.70
2023-01-17T04:24:38.464Z,13.60
2023-01-17T04:27:05.666Z,15.20
2023-01-17T04:29:37.961Z,16.90
2023-01-17T04:32:05.316Z,17.00
2023-01-17T04:34:32.261Z,16.30
2023-01-17T04:36:59.416Z,14.40
2023-01-17T04:39:26.456Z,16.50
2023-01-17T04:41:53.429Z,15.40
2023-01-17T04:44:25.579Z,16.10
2023-01-17T04:46:52.617Z,15.90
2023-01-17T04:49:19.570Z,10.80
2023-01-17T04:51:46.672Z,12.30
2023-01-17T04:54:13.761Z,14.30
2023-01-17T04:56:40.804Z,13.50
2023-01-17T04:59:07.967Z,12.20
2023-01-17T05:01:35.521Z,13.80
2023-01-17T05:04:02.870Z,14.20
2023-01-17T05:06:29.922Z,13.00
2023-01-17T05:08:56.962Z,13.30
2023-01-17T05:11:24.015Z,13.00
2023-01-17T05:13:51.059Z,15.10
2023-01-17T05:16:19.661Z,15.80
2023-01-17T05:18:46.686Z,16.70
2023-01-17T05:21:13.661Z,17.30
2023-01-17T05:23:42.830Z,16.40
2023-01-17T05:26:09.916Z,17.90
2023-01-17T05:28:36.927Z,17.00
2023-01-17T05:31:04.189Z,17.60
2023-01-17T05:33:31.329Z,17.00
2023-01-17T05:35:58.373Z,16.00
2023-01-17T05:38:25.429Z,16.30
2023-01-17T05:40:52.757Z,19.90
2023-01-17T05:43:20.329Z,17.20
2023-01-17T05:45:50.248Z,17.30
2023-01-17T05:48:17.396Z,16.90
2023-01-17T05:50:44.442Z,17.40
2023-01-17T05:53:13.229Z,15.40
2023-01-17T05:55:40.691Z,17.60
2023-01-17T05:58:09.038Z,18.10
2023-01-17T06:00:37.580Z,16.30
2023-01-17T06:03:04.803Z,18.20
2023-01-17T06:05:31.864Z,16.60
2023-01-17T06:07:59.395Z,17.00
2023-01-17T06:10:26.502Z,16.90
2023-01-17T06:13:10.432Z,16.00
2023-01-17T06:15:37.700Z,18.30
2023-01-17T06:18:08.885Z,12.50
2023-01-17T06:20:36.943Z,16.10
2023-01-17T06:23:11.799Z,16.10
2023-01-17T06:25:48.167Z,15.80
2023-01-17T06:30:44.064Z,17.50
2023-01-17T06:33:11.361Z,15.30
2023-01-17T06:35:44.427Z,17.80
2023-01-17T06:38:11.390Z,15.30
2023-01-17T06:40:38.321Z,15.60
2023-01-17T06:43:05.549Z,17.80
2023-01-17T06:45:34.034Z,17.00
2023-01-17T06:48:03.874Z,17.30
2023-01-17T06:50:31.313Z,19.70
2023-01-17T06:53:00.404Z,16.60
2023-01-17T06:55:36.414Z,15.50
2023-01-17T06:58:03.538Z,18.20
2023-01-17T07:00:31.495Z,16.60
2023-01-17T07:02:58.644Z,15.80
2023-01-17T07:05:25.745Z,18.00
2023-01-17T07:07:53.727Z,17.80
2023-01-17T07:10:20.906Z,17.60
2023-01-17T07:12:47.998Z,15.50
2023-01-17T07:15:15.120Z,18.00
2023-01-17T07:17:42.178Z,18.40
2023-01-17T07:20:10.044Z,17.50
2023-01-17T07:22:37.955Z,18.30
2023-01-17T07:25:05.358Z,14.90
2023-01-17T07:27:33.769Z,16.50
2023-01-17T07:30:00.815Z,16.90
2023-01-17T07:32:28.543Z,19.10
2023-01-17T07:34:57.743Z,20.00
2023-01-17T07:37:26.500Z,18.10
2023-01-17T07:39:54.696Z,18.30
2023-01-17T07:42:24.077Z,21.40
2023-01-17T07:44:51.433Z,21.50
2023-01-17T07:47:18.456Z,21.80
2023-01-17T07:49:45.523Z,21.90
2023-01-17T07:52:12.462Z,25.30
2023-01-17T07:54:39.444Z,22.00
2023-01-17T07:57:06.590Z,19.30
2023-01-17T07:59:34.762Z,21.90
2023-01-17T08:02:02.045Z,20.60
2023-01-17T08:04:34.842Z,19.80
2023-01-17T08:07:01.955Z,23.20
2023-01-17T08:09:29.063Z,24.80
2023-01-17T08:11:56.065Z,22.80
2023-01-17T08:14:24.114Z,20.20
2023-01-17T08:16:51.185Z,23.90
2023-01-17T08:19:18.266Z,23.50
2023-01-17T08:21:45.584Z,22.30
2023-01-17T08:24:14.019Z,21.40
2023-01-17T08:26:41.120Z,22.00
2023-01-17T08:29:08.140Z,22.30
2023-01-17T08:31:35.225Z,23.70
2023-01-17T08:34:02.352Z,27.10
2023-01-17T08:36:31.422Z,23.70
2023-01-17T08:38:58.632Z,25.70
2023-01-17T08:41:28.088Z,22.40
2023-01-17T08:44:00.299Z,22.40
2023-01-17T08:46:27.497Z,22.90
2023-01-17T08:48:56.077Z,21.80
2023-01-17T08:51:26.462Z,22.70
2023-01-17T08:53:53.907Z,22.40
2023-01-17T08:56:20.952Z,19.30
2023-01-17T08:58:48.051Z,23.80
2023-01-17T09:01:15.140Z,24.60
2023-01-17T09:03:42.638Z,21.30
2023-01-17T09:06:11.279Z,23.30
2023-01-17T09:08:38.484Z,22.70
2023-01-17T09:11:09.610Z,25.80
2023-01-17T09:13:36.839Z,21.90
2023-01-17T09:16:04.054Z,23.30
2023-01-17T09:18:31.597Z,22.40
2023-01-17T09:20:59.540Z,21.60
2023-01-17T09:23:27.656Z,23.70
2023-01-17T09:25:58.973Z,22.10
2023-01-17T09:28:26.790Z,24.20
2023-01-17T09:30:54.012Z,24.40
2023-01-17T09:33:21.149Z,22.60
2023-01-17T09:35:48.102Z,23.60
2023-01-17T09:38:15.186Z,23.30
2023-01-17T09:40:46.383Z,20.40
2023-01-17T09:43:31.801Z,23.50
2023-01-17T09:45:58.924Z,21.70
2023-01-17T09:48:31.922Z,24.00
2023-01-17T09:51:12.276Z,20.30
2023-01-17T09:53:40.246Z,22.80
2023-01-17T09:56:16.136Z,24.50
2023-01-17T09:59:18.806Z,21.30
2023-01-17T10:01:55.796Z,23.60
2023-01-17T10:04:41.730Z,23.30
2023-01-17T10:07:25.616Z,23.00
2023-01-17T10:10:02.267Z,23.10
2023-01-17T10:12:44.670Z,25.30
2023-01-17T10:15:39.154Z,24.10
2023-01-17T10:18:29.835Z,25.50
2023-01-17T10:21:11.211Z,21.60
2023-01-17T10:24:00.021Z,24.60
2023-01-17T10:26:27.394Z,22.20
2023-01-17T10:28:57.533Z,22.00
2023-01-17T10:31:30.158Z,23.70
2023-01-17T10:34:00.799Z,25.10
2023-01-17T10:36:30.231Z,24.00
2023-01-17T10:38:59.763Z,25.40
2023-01-17T10:41:30.208Z,24.70
2023-01-17T10:43:57.232Z,23.30
2023-01-17T10:46:34.560Z,24.60
2023-01-17T10:49:01.728Z,25.80
2023-01-17T10:51:35.272Z,24.00
2023-01-17T10:54:26.421Z,25.00
2023-01-17T10:56:53.551Z,25.00
2023-01-17T10:59:42.462Z,24.30
2023-01-17T11:02:19.042Z,26.20
2023-01-17T11:04:46.023Z,25.40
2023-01-17T11:07:13.335Z,24.80
2023-01-17T11:09:44.934Z,26.60
2023-01-17T11:12:30.451Z,24.30
2023-01-17T11:15:08.760Z,27.50
2023-01-17T11:17:42.244Z,26.10
2023-01-17T11:20:12.683Z,27.00
2023-01-17T11:22:39.688Z,25.40
2023-01-17T11:25:07.408Z,25.40
2023-01-17T11:27:35.548Z,24.70
2023-01-17T11:30:03.807Z,28.80
2023-01-17T11:32:32.722Z,28.00
2023-01-17T11:35:16.442Z,31.10
2023-01-17T11:38:13.849Z,31.90
2023-01-17T11:40:42.331Z,35.40
2023-01-17T11:43:12.901Z,31.40
2023-01-17T11:45:40.577Z,36.50
2023-01-17T11:48:13.151Z,34.10
2023-01-17T11:50:59.666Z,28.40
2023-01-17T11:53:38.859Z,31.00
2023-01-17T11:56:10.482Z,33.00
2023-01-17T11:58:40.166Z,33.10
2023-01-17T12:01:32.151Z,33.60
2023-01-17T12:04:17.790Z,36.70
2023-01-17T12:06:57.755Z,33.10
2023-01-17T12:09:59.922Z,38.50
2023-01-17T12:12:57.967Z,35.90
2023-01-17T12:15:52.169Z,34.80
2023-01-17T12:18:19.339Z,32.40
2023-01-17T12:21:08.269Z,30.50
2023-01-17T12:23:51.149Z,31.60
2023-01-17T12:26:33.467Z,29.20
2023-01-17T12:29:29.380Z,30.90
2023-01-17T12:32:15.301Z,29.70
2023-01-17T12:34:47.241Z,30.50
2023-01-17T12:37:24.615Z,29.80
2023-01-17T12:40:20.968Z,29.10
2023-01-17T12:43:01.625Z,29.60
2023-01-17T12:45:45.702Z,24.00
2023-01-17T12:48:19.971Z,29.10
2023-01-17T12:50:55.248Z,28.50
2023-01-17T12:53:45.189Z,28.60
2023-01-17T12:56:24.462Z,28.30
2023-01-17T12:58:56.363Z,28.50
2023-01-17T13:01:40.984Z,29.00
2023-01-17T13:04:18.031Z,27.10
2023-01-17T13:06:46.816Z,30.40
2023-01-17T13:09:15.128Z,30.70
2023-01-17T13:11:46.710Z,33.50
2023-01-17T13:14:13.691Z,31.90
2023-01-17T13:16:44.944Z,30.30
2023-01-17T13:19:24.425Z,30.10
2023-01-17T13:21:51.443Z,31.90
2023-01-17T13:24:42.485Z,30.00
2023-01-17T13:27:25.256Z,31.30
2023-01-17T13:29:55.215Z,28.30
2023-01-17T13:32:31.270Z,26.00
2023-01-17T13:35:33.751Z,23.40
2023-01-17T13:38:43.186Z,22.10
2023-01-17T13:41:34.956Z,21.60
2023-01-17T13:44:20.700Z,23.10
2023-01-17T13:47:04.431Z,22.60
2023-01-17T13:49:34.299Z,22.60
2023-01-17T13:52:23.360Z,24.90
2023-01-17T13:54:51.143Z,23.10
2023-01-17T13:57:29.562Z,24.30
2023-01-17T13:59:57.723Z,23.50
2023-01-17T14:02:33.672Z,22.10
2023-01-17T14:05:15.411Z,23.10
2023-01-17T14:07:52.425Z,22.20
2023-01-17T14:10:39.398Z,23.10
2023-01-17T14:13:25.039Z,23.50
2023-01-17T14:15:52.029Z,21.70
2023-01-17T14:18:45.321Z,21.60
2023-01-17T14:21:23.584Z,23.30
2023-01-17T14:24:05.810Z,24.40
2023-01-17T14:26:53.520Z,25.10
2023-01-17T14:29:42.822Z,26.70
2023-01-17T14:32:14.975Z,23.60
2023-01-17T14:34:44.138Z,25.10
2023-01-17T14:37:20.794Z,26.40
2023-01-17T14:39:49.171Z,26.50
2023-01-17T14:42:18.411Z,26.00
2023-01-17T14:44:49.972Z,27.20
2023-01-17T14:47:17.014Z,25.90
2023-01-17T14:49:44.355Z,28.10
2023-01-17T14:52:15.633Z,27.10
2023-01-17T14:54:51.663Z,31.40
2023-01-17T14:57:28.188Z,29.70
2023-01-17T15:00:13.890Z,28.90
2023-01-17T15:02:42.767Z,26.30
2023-01-17T15:05:15.918Z,29.10
2023-01-17T15:07:48.899Z,27.30
2023-01-17T15:10:17.654Z,26.30
2023-01-17T15:12:47.120Z,26.00
2023-01-17T15:15:37.467Z,30.50
2023-01-17T15:18:13.588Z,27.80
2023-01-17T15:21:04.822Z,29.80
2023-01-17T15:23:47.111Z,29.00
2023-01-17T15:26:16.427Z,28.90
2023-01-17T15:28:45.019Z,31.50
2023-01-17T15:31:24.180Z,32.20
2023-01-17T15:33:55.985Z,27.40
2023-01-17T15:36:32.765Z,26.20
2023-01-17T15:39:07.568Z,32.10
2023-01-17T15:41:35.693Z,33.50
2023-01-17T15:44:03.093Z,27.60
2023-01-17T15:46:42.137Z,31.90
2023-01-17T15:49:19.836Z,28.80
2023-01-17T15:52:16.002Z,30.10
2023-01-17T15:54:50.643Z,27.90
2023-01-17T15:57:27.816Z,29.40
2023-01-17T16:00:01.843Z,30.10
2023-01-17T16:02:36.172Z,30.90
2023-01-17T16:05:23.510Z,30.30
2023-01-17T16:08:03.452Z,31.00
2023-01-17T16:10:35.805Z,27.90
2023-01-17T16:13:03.654Z,28.90
2023-01-17T16:15:30.875Z,28.80
2023-01-17T16:17:59.534Z,29.10
2023-01-17T16:20:38.011Z,27.00
2023-01-17T16:23:05.046Z,22.30
2023-01-17T16:25:34.847Z,29.50
2023-01-17T16:28:02.466Z,30.80
2023-01-17T16:30:29.895Z,29.50
2023-01-17T16:32:59.685Z,30.80
2023-01-17T16:35:28.009Z,27.90
2023-01-17T16:37:57.101Z,30.10
2023-01-17T16:40:25.681Z,27.90
2023-01-17T16:42:52.718Z,27.90
2023-01-17T16:45:19.799Z,28.20
2023-01-17T16:47:47.768Z,29.20
2023-01-17T16:50:21.793Z,31.40
2023-01-17T16:52:52.565Z,29.90
2023-01-17T16:55:27.217Z,30.60
2023-01-17T16:57:56.508Z,29.50
2023-01-17T17:00:23.616Z,30.10
2023-01-17T17:02:54.010Z,30.90
2023-01-17T17:05:21.112Z,29.40
2023-01-17T17:07:50.861Z,28.70
2023-01-17T17:10:25.310Z,29.00
2023-01-17T17:12:52.344Z,29.80
2023-01-17T17:15:19.331Z,31.10
2023-01-17T17:17:46.373Z,31.70
2023-01-17T17:20:14.375Z,27.80
2023-01-17T17:22:43.756Z,31.90
2023-01-17T17:25:12.094Z,26.50
2023-01-17T17:27:39.123Z,28.90
2023-01-17T17:30:06.876Z,29.50
2023-01-17T17:32:34.012Z,27.20
2023-01-17T17:35:00.969Z,28.00
2023-01-17T17:37:29.210Z,28.90
2023-01-17T17:39:57.138Z,26.80
2023-01-17T17:42:24.233Z,29.20
2023-01-17T17:44:51.193Z,30.90
2023-01-17T17:47:18.202Z,30.80
2023-01-17T17:49:45.295Z,28.40
2023-01-17T17:52:12.248Z,26.70
2023-01-17T17:54:39.182Z,28.10
2023-01-17T17:57:06.694Z,26.40
2023-01-17T17:59:33.711Z,25.60
2023-01-17T18:02:00.925Z,25.70
2023-01-17T18:04:28.367Z,29.80
2023-01-17T18:06:57.457Z,23.40
2023-01-17T18:09:24.528Z,25.30
2023-01-17T18:11:56.632Z,23.80
2023-01-17T18:14:24.669Z,26.00
2023-01-17T18:16:51.694Z,27.60
2023-01-17T18:19:20.677Z,23.60
2023-01-17T18:21:53.041Z,27.90
2023-01-17T18:24:21.935Z,26.80
2023-01-17T18:26:58.727Z,25.20
2023-01-17T18:29:26.714Z,23.80
2023-01-17T18:31:53.732Z,25.10
2023-01-17T18:34:24.260Z,26.80
2023-01-17T18:36:56.789Z,25.50
2023-01-17T18:39:28.925Z,22.90
2023-01-17T18:41:55.970Z,23.20
2023-01-17T18:44:23.168Z,26.70
2023-01-17T18:46:51.140Z,24.20
2023-01-17T18:49:19.500Z,24.50
2023-01-17T18:51:55.581Z,25.40
2023-01-17T18:54:32.081Z,22.50
2023-01-17T18:56:59.168Z,26.00
2023-01-17T18:59:26.156Z,24.00
2023-01-17T19:01:53.313Z,23.80
2023-01-17T19:04:25.738Z,22.60
2023-01-17T19:06:53.502Z,25.80
2023-01-17T19:09:20.602Z,26.50
2023-01-17T19:11:47.727Z,27.20
2023-01-17T19:14:15.912Z,26.30
2023-01-17T19:16:43.183Z,26.70
2023-01-17T19:19:13.046Z,26.60
2023-01-17T19:21:40.070Z,25.10
2023-01-17T19:24:07.327Z,27.50
2023-01-17T19:26:34.361Z,26.20
2023-01-17T19:29:03.916Z,26.40
2023-01-17T19:31:31.705Z,25.20
2023-01-17T19:33:59.522Z,24.10
2023-01-17T19:36:28.896Z,23.60
2023-01-17T19:39:04.451Z,25.50
2023-01-17T19:44:05.001Z,26.00
2023-01-17T19:46:32.629Z,26.30
2023-01-17T19:48:59.995Z,25.10
2023-01-17T19:51:27.373Z,27.50
2023-01-17T19:54:01.610Z,25.30
2023-01-17T19:56:28.871Z,26.50
2023-01-17T19:59:01.390Z,25.40
2023-01-17T20:01:31.287Z,26.20
2023-01-17T20:03:58.693Z,22.60
2023-01-17T20:06:31.077Z,25.80
2023-01-17T20:08:58.349Z,24.80
2023-01-17T20:11:25.811Z,26.00
2023-01-17T20:13:57.300Z,25.80
2023-01-17T20:16:30.270Z,24.30
2023-01-17T20:18:58.582Z,27.30
2023-01-17T20:21:26.604Z,23.20
2023-01-17T20:23:54.668Z,27.30
2023-01-17T20:26:31.132Z,29.30
2023-01-17T20:28:58.461Z,26.70
2023-01-17T20:31:25.482Z,24.70
2023-01-17T20:33:54.257Z,28.20
2023-01-17T20:36:23.087Z,26.80
2023-01-17T20:38:50.217Z,26.90
2023-01-17T20:41:31.640Z,28.40
2023-01-17T20:44:00.492Z,25.40
2023-01-17T20:46:35.773Z,28.40
2023-01-17T20:49:05.709Z,28.00
2023-01-17T20:51:43.717Z,25.30
2023-01-17T20:54:19.035Z,25.90
2023-01-17T20:56:47.868Z,28.30
2023-01-17T20:59:19.893Z,27.50
2023-01-17T21:01:47.204Z,25.50
2023-01-17T21:04:15.053Z,27.60
2023-01-17T21:06:43.158Z,24.00
2023-01-17T21:09:12.358Z,27.40
2023-01-17T21:11:39.393Z,25.70
2023-01-17T21:14:06.617Z,23.20
2023-01-17T21:16:34.374Z,24.20
2023-01-17T21:19:01.586Z,25.80
2023-01-17T21:21:29.371Z,24.10
2023-01-17T21:24:00.215Z,25.70
2023-01-17T21:26:33.149Z,26.00
2023-01-17T21:29:03.861Z,25.20
2023-01-17T21:31:33.782Z,26.20
2023-01-17T21:34:05.129Z,25.60
2023-01-17T21:36:39.050Z,26.50
2023-01-17T21:39:07.700Z,25.70
2023-01-17T21:41:39.419Z,25.30
2023-01-17T21:44:08.789Z,24.20
2023-01-17T21:46:41.147Z,25.10
2023-01-17T21:49:10.833Z,26.30
2023-01-17T21:51:59.554Z,24.40
2023-01-17T21:54:46.279Z,23.40
2023-01-17T21:57:33.547Z,26.70
2023-01-17T22:00:00.678Z,20.60
2023-01-17T22:02:27.679Z,24.90
2023-01-17T22:04:59.876Z,24.90
2023-01-17T22:07:27.262Z,21.70
2023-01-17T22:09:54.814Z,24.40
2023-01-17T22:12:26.928Z,23.00
2023-01-17T22:14:53.884Z,25.30
2023-01-17T22:17:25.962Z,23.10
2023-01-17T22:19:58.001Z,23.90
2023-01-17T22:22:24.901Z,26.00
2023-01-17T22:24:52.058Z,25.30
2023-01-17T22:27:24.311Z,26.80
2023-01-17T22:29:51.347Z,27.00
2023-01-17T22:32:23.410Z,24.00
2023-01-17T22:34:55.503Z,23.90
2023-01-17T22:37:22.433Z,25.00
2023-01-17T22:39:49.352Z,23.00
2023-01-17T22:42:21.910Z,25.70
2023-01-17T22:44:48.935Z,33.30
2023-01-17T22:47:15.963Z,31.40
2023-01-17T22:49:48.230Z,33.80
2023-01-17T22:52:15.279Z,30.80
2023-01-17T22:54:47.455Z,32.30
2023-01-17T22:57:19.717Z,29.90
2023-01-17T22:59:51.892Z,30.70
2023-01-17T23:02:18.941Z,27.50
2023-01-17T23:04:52.161Z,33.40
2023-01-17T23:07:27.260Z,36.00
2023-01-17T23:09:54.285Z,34.50
2023-01-17T23:12:21.245Z,35.70
2023-01-17T23:15:12.176Z,33.00
2023-01-17T23:18:02.963Z,30.70
2023-01-17T23:20:30.079Z,22.80
2023-01-17T23:22:57.273Z,27.50
2023-01-17T23:25:24.319Z,27.70
2023-01-17T23:28:10.265Z,27.80
2023-01-17T23:30:41.084Z,24.60
2023-01-17T23:33:12.411Z,25.10
2023-01-17T23:35:42.144Z,24.50
2023-01-17T23:38:34.207Z,23.50
2023-01-17T23:41:24.239Z,23.50
2023-01-17T23:44:00.995Z,23.90
2023-01-17T23:46:30.276Z,22.90
2023-01-17T23:48:57.486Z,24.50
2023-01-17T23:51:24.539Z,25.40
2023-01-17T23:53:57.468Z,23.90
2023-01-17T23:56:25.032Z,23.20
2023-01-17T23:58:52.000Z,24.10
